createdAt,value
2024-04-24T00:00:16.047Z,0.70
2024-04-24T00:02:42.926Z,1.08
2024-04-24T00:05:09.772Z,0.93
2024-04-24T00:07:36.790Z,0.65
2024-04-24T00:10:03.839Z,1.25
2024-04-24T00:12:30.983Z,1.40
2024-04-24T00:14:57.870Z,1.02
2024-04-24T00:17:24.794Z,1.67
2024-04-24T00:19:51.651Z,1.85
2024-04-24T00:22:18.548Z,1.08
2024-04-24T00:24:45.301Z,1.08
2024-04-24T00:27:20.604Z,1.42
2024-04-24T00:29:47.602Z,1.98
2024-04-24T00:32:14.612Z,1.52
2024-04-24T00:34:41.428Z,1.25
2024-04-24T00:37:08.261Z,1.30
2024-04-24T00:39:35.082Z,1.50
2024-04-24T00:42:01.865Z,1.73
2024-04-24T00:44:28.734Z,1.20
2024-04-24T00:46:57.618Z,1.23
2024-04-24T00:49:26.575Z,1.55
2024-04-24T00:51:54.026Z,1.88
2024-04-24T00:54:21.096Z,0.80
2024-04-24T00:56:47.938Z,2.47
2024-04-24T00:59:15.128Z,2.03
2024-04-24T01:01:42.119Z,2.88
2024-04-24T01:04:09.056Z,2.55
2024-04-24T01:06:35.982Z,4.18
2024-04-24T01:09:02.873Z,3.10
2024-04-24T01:11:32.653Z,2.45
2024-04-24T01:13:59.953Z,1.80
2024-04-24T01:16:32.626Z,1.65
2024-04-24T01:19:03.190Z,2.28
2024-04-24T01:21:52.522Z,1.33
2024-04-24T01:24:26.567Z,2.25
2024-04-24T01:26:53.782Z,2.85
2024-04-24T01:29:20.807Z,1.33
2024-04-24T01:31:47.943Z,3.45
2024-04-24T01:34:16.044Z,1.10
2024-04-24T01:36:42.958Z,1.60
2024-04-24T01:39:09.788Z,2.70
2024-04-24T01:41:36.616Z,1.33
2024-04-24T01:44:03.450Z,1.45
2024-04-24T01:46:30.448Z,1.08
2024-04-24T01:48:57.394Z,1.83
2024-04-24T01:51:24.237Z,2.88
2024-04-24T01:53:52.251Z,1.52
2024-04-24T01:56:19.288Z,1.92
2024-04-24T01:58:46.286Z,1.90
2024-04-24T02:01:13.396Z,1.30
2024-04-24T02:03:40.227Z,1.08
2024-04-24T02:06:07.073Z,2.10
2024-04-24T02:08:35.728Z,1.60
2024-04-24T02:11:02.835Z,1.90
2024-04-24T02:13:29.737Z,1.88
2024-04-24T02:15:56.823Z,1.60
2024-04-24T02:18:23.738Z,4.25
2024-04-24T02:20:50.655Z,1.75
2024-04-24T02:23:22.013Z,2.58
2024-04-24T02:25:50.014Z,2.13
2024-04-24T02:28:17.054Z,4.65
2024-04-24T02:30:44.007Z,1.98
2024-04-24T02:33:11.018Z,2.58
2024-04-24T02:35:37.982Z,2.80
2024-04-24T02:38:05.034Z,4.40
2024-04-24T02:40:31.891Z,4.28
2024-04-24T02:42:58.641Z,1.80
2024-04-24T02:45:25.607Z,3.33
2024-04-24T02:47:52.606Z,3.05
2024-04-24T02:50:21.034Z,2.70
2024-04-24T02:52:48.019Z,3.50
2024-04-24T02:55:14.915Z,2.10
2024-04-24T02:57:41.779Z,2.50
2024-04-24T03:00:09.001Z,4.90
2024-04-24T03:02:37.357Z,3.15
2024-04-24T03:05:04.451Z,3.80
2024-04-24T03:07:31.315Z,3.58
2024-04-24T03:09:58.133Z,3.10
2024-04-24T03:12:26.650Z,2.95
2024-04-24T03:14:53.738Z,4.40
2024-04-24T03:17:20.992Z,3.80
2024-04-24T03:19:47.932Z,2.92
2024-04-24T03:22:14.773Z,3.65
2024-04-24T03:24:44.188Z,3.92
2024-04-24T03:27:11.002Z,2.35
2024-04-24T03:29:39.658Z,3.10
2024-04-24T03:32:06.662Z,2.83
2024-04-24T03:34:33.581Z,4.10
2024-04-24T03:37:00.394Z,4.53
2024-04-24T03:39:27.201Z,4.32
2024-04-24T03:41:54.000Z,2.58
2024-04-24T03:44:21.085Z,2.47
2024-04-24T03:46:47.922Z,1.80
2024-04-24T03:49:14.764Z,2.38
2024-04-24T03:51:41.566Z,4.35
2024-04-24T03:54:08.452Z,2.85
2024-04-24T03:56:35.228Z,1.38
2024-04-24T03:59:03.190Z,2.05
2024-04-24T04:01:30.068Z,3.22
2024-04-24T04:03:59.240Z,2.53
2024-04-24T04:06:27.583Z,3.60
2024-04-24T04:08:54.435Z,4.25
2024-04-24T04:11:21.307Z,3.30
2024-04-24T04:13:48.378Z,2.60
2024-04-24T04:16:15.317Z,2.42
2024-04-24T04:18:42.291Z,2.05
2024-04-24T04:21:09.215Z,2.45
2024-04-24T04:23:35.981Z,2.25
2024-04-24T04:26:02.923Z,1.77
2024-04-24T04:28:29.756Z,2.97
2024-04-24T04:30:56.648Z,2.33
2024-04-24T04:33:23.506Z,2.08
2024-04-24T04:35:50.579Z,3.75
2024-04-24T04:38:17.418Z,8.77
2024-04-24T04:40:47.076Z,2.03
2024-04-24T04:43:14.138Z,2.22
2024-04-24T04:45:41.004Z,3.20
2024-04-24T04:48:08.667Z,2.88
2024-04-24T04:50:35.790Z,2.08
2024-04-24T04:53:02.558Z,1.52
2024-04-24T04:55:29.947Z,1.75
2024-04-24T04:58:02.164Z,2.15
2024-04-24T05:00:29.014Z,2.15
2024-04-24T05:02:55.864Z,2.00
2024-04-24T05:05:23.541Z,3.55
2024-04-24T05:07:50.495Z,2.10
2024-04-24T05:10:17.272Z,1.40
2024-04-24T05:12:44.176Z,1.40
2024-04-24T05:15:11.041Z,1.52
2024-04-24T05:17:38.337Z,1.58
2024-04-24T05:20:06.393Z,1.38
2024-04-24T05:22:41.419Z,0.90
2024-04-24T05:25:08.445Z,1.08
2024-04-24T05:27:53.784Z,1.38
2024-04-24T05:30:20.717Z,2.33
2024-04-24T05:32:50.822Z,1.52
2024-04-24T05:35:17.845Z,2.83
2024-04-24T05:37:45.458Z,0.80
2024-04-24T05:40:12.325Z,1.52
2024-04-24T05:42:39.105Z,1.58
2024-04-24T05:45:06.307Z,2.72
2024-04-24T05:47:33.228Z,1.15
2024-04-24T05:50:01.128Z,3.75
2024-04-24T05:52:27.994Z,1.10
2024-04-24T05:54:54.835Z,2.67
2024-04-24T05:57:27.223Z,0.80
2024-04-24T05:59:55.877Z,0.75
2024-04-24T06:02:22.900Z,1.80
2024-04-24T06:04:52.122Z,2.85
2024-04-24T06:07:19.402Z,1.30
2024-04-24T06:09:46.360Z,1.73
2024-04-24T06:12:13.365Z,2.33
2024-04-24T06:14:40.466Z,0.90
2024-04-24T06:17:07.387Z,2.55
2024-04-24T06:19:34.400Z,2.13
2024-04-24T06:22:01.422Z,1.05
2024-04-24T06:24:28.303Z,5.20
2024-04-24T06:26:55.464Z,1.48
2024-04-24T06:29:23.539Z,1.25
2024-04-24T06:31:50.447Z,2.83
2024-04-24T06:34:17.600Z,6.30
2024-04-24T06:36:44.474Z,1.00
2024-04-24T06:39:11.432Z,4.32
2024-04-24T06:41:38.298Z,2.05
2024-04-24T06:44:05.370Z,0.60
2024-04-24T06:46:32.193Z,0.68
2024-04-24T06:48:59.111Z,0.85
2024-04-24T06:51:25.893Z,3.83
2024-04-24T06:53:52.733Z,0.68
2024-04-24T06:56:20.177Z,2.35
2024-04-24T06:58:47.335Z,2.03
2024-04-24T07:01:14.171Z,0.80
2024-04-24T07:03:41.327Z,0.60
2024-04-24T07:06:08.507Z,3.67
2024-04-24T07:08:35.368Z,2.95
2024-04-24T07:11:02.348Z,0.82
2024-04-24T07:13:29.330Z,0.68
2024-04-24T07:15:56.352Z,1.83
2024-04-24T07:18:23.260Z,0.60
2024-04-24T07:20:50.289Z,0.60
2024-04-24T07:23:17.955Z,0.65
2024-04-24T07:25:44.949Z,0.75
2024-04-24T07:28:12.065Z,0.77
2024-04-24T07:30:38.898Z,1.38
2024-04-24T07:33:05.920Z,1.88
2024-04-24T07:35:33.690Z,0.60
2024-04-24T07:38:00.805Z,0.85
2024-04-24T07:40:27.656Z,1.15
2024-04-24T07:42:54.900Z,1.65
2024-04-24T07:45:21.628Z,1.98
2024-04-24T07:47:48.623Z,1.95
2024-04-24T07:50:15.793Z,0.57
2024-04-24T07:52:42.762Z,3.13
2024-04-24T07:55:09.564Z,0.50
2024-04-24T07:57:36.583Z,2.15
2024-04-24T08:00:03.687Z,0.52
2024-04-24T08:02:38.905Z,1.10
2024-04-24T08:05:06.449Z,1.63
2024-04-24T08:07:36.160Z,0.50
2024-04-24T08:10:03.182Z,0.60
2024-04-24T08:12:30.135Z,2.10
2024-04-24T08:14:57.096Z,3.13
2024-04-24T08:17:26.036Z,1.10
2024-04-24T08:19:53.399Z,0.40
2024-04-24T08:22:20.451Z,2.15
2024-04-24T08:24:47.711Z,2.05
2024-04-24T08:27:14.755Z,1.27
2024-04-24T08:29:42.129Z,0.60
2024-04-24T08:32:09.463Z,0.52
2024-04-24T08:34:37.236Z,4.57
2024-04-24T08:37:04.182Z,0.88
2024-04-24T08:39:31.144Z,2.33
2024-04-24T08:42:00.276Z,0.80
2024-04-24T08:44:29.087Z,1.10
2024-04-24T08:46:57.668Z,0.85
2024-04-24T08:49:25.626Z,0.50
2024-04-24T08:51:54.895Z,0.50
2024-04-24T08:54:25.590Z,0.93
2024-04-24T08:57:01.301Z,0.60
2024-04-24T08:59:30.576Z,0.40
2024-04-24T09:02:08.493Z,1.75
2024-04-24T09:04:36.984Z,1.20
2024-04-24T09:07:04.568Z,0.70
2024-04-24T09:09:32.003Z,1.88
2024-04-24T09:12:02.275Z,1.23
2024-04-24T09:14:31.181Z,0.40
2024-04-24T09:16:58.145Z,1.70
2024-04-24T09:19:25.190Z,0.45
2024-04-24T09:21:52.028Z,0.82
2024-04-24T09:24:20.039Z,2.17
2024-04-24T09:26:51.403Z,3.17
2024-04-24T09:29:18.498Z,2.53
2024-04-24T09:31:45.290Z,2.28
2024-04-24T09:34:12.415Z,2.53
2024-04-24T09:36:42.927Z,0.70
2024-04-24T09:39:11.463Z,1.05
2024-04-24T09:41:42.518Z,2.15
2024-04-24T09:44:14.163Z,0.68
2024-04-24T09:46:49.383Z,0.50
2024-04-24T09:49:16.677Z,0.80
2024-04-24T09:51:43.681Z,0.40
2024-04-24T09:54:10.680Z,0.52
2024-04-24T09:56:46.959Z,0.60
2024-04-24T09:59:14.801Z,0.95
2024-04-24T10:01:51.072Z,0.57
2024-04-24T10:04:18.565Z,2.05
2024-04-24T10:06:47.630Z,2.05
2024-04-24T10:09:20.835Z,0.45
2024-04-24T10:11:57.442Z,2.10
2024-04-24T10:14:26.373Z,0.60
2024-04-24T10:16:54.002Z,1.33
2024-04-24T10:19:22.406Z,0.60
2024-04-24T10:21:50.133Z,0.60
2024-04-24T10:24:18.936Z,0.60
2024-04-24T10:26:47.465Z,0.63
2024-04-24T10:29:14.782Z,0.60
2024-04-24T10:31:43.794Z,0.50
2024-04-24T10:34:12.103Z,0.68
2024-04-24T10:36:39.118Z,0.70
2024-04-24T10:39:06.052Z,1.45
2024-04-24T10:41:33.757Z,1.17
2024-04-24T10:44:01.984Z,0.90
2024-04-24T10:46:29.759Z,0.60
2024-04-24T10:48:58.104Z,2.50
2024-04-24T10:51:32.954Z,0.80
2024-04-24T10:54:15.714Z,0.60
2024-04-24T10:56:43.892Z,0.60
2024-04-24T10:59:11.250Z,1.40
2024-04-24T11:01:52.273Z,0.93
2024-04-24T11:04:24.737Z,1.75
2024-04-24T11:06:51.975Z,3.38
2024-04-24T11:09:21.233Z,3.45
2024-04-24T11:11:50.708Z,2.50
2024-04-24T11:14:17.881Z,2.08
2024-04-24T11:16:58.347Z,2.97
2024-04-24T11:19:25.483Z,4.00
2024-04-24T11:21:54.018Z,3.20
2024-04-24T11:24:32.503Z,3.15
2024-04-24T11:27:00.581Z,4.00
2024-04-24T11:29:27.613Z,5.88
2024-04-24T11:31:57.043Z,7.55
2024-04-24T11:34:24.324Z,9.77
2024-04-24T11:36:51.868Z,6.55
2024-04-24T11:39:21.476Z,8.27
2024-04-24T11:41:50.569Z,11.40
2024-04-24T11:44:17.760Z,7.20
2024-04-24T11:46:48.224Z,4.63
2024-04-24T11:49:19.335Z,4.90
2024-04-24T11:51:51.039Z,4.18
2024-04-24T11:54:17.961Z,5.40
2024-04-24T11:56:46.570Z,3.88
2024-04-24T11:59:17.835Z,5.97
2024-04-24T12:01:45.117Z,4.38
2024-04-24T12:04:11.973Z,3.80
2024-04-24T12:06:43.377Z,4.43
2024-04-24T12:09:16.050Z,6.05
2024-04-24T12:11:45.258Z,6.13
2024-04-24T12:14:14.851Z,5.53
2024-04-24T12:16:43.079Z,5.72
2024-04-24T12:19:10.346Z,7.22
2024-04-24T12:21:37.318Z,6.22
2024-04-24T12:24:04.302Z,5.75
2024-04-24T12:26:31.638Z,5.18
2024-04-24T12:28:58.952Z,3.92
2024-04-24T12:31:25.849Z,4.10
2024-04-24T12:33:52.898Z,5.90
2024-04-24T12:36:19.849Z,3.28
2024-04-24T12:38:46.826Z,4.78
2024-04-24T12:41:13.870Z,5.07
2024-04-24T12:43:40.770Z,10.30
2024-04-24T12:46:07.653Z,4.65
2024-04-24T12:48:35.587Z,6.25
2024-04-24T12:51:07.747Z,4.70
2024-04-24T12:53:34.646Z,3.60
2024-04-24T12:56:01.526Z,4.05
2024-04-24T12:58:28.389Z,2.15
2024-04-24T13:00:55.370Z,2.38
2024-04-24T13:03:22.378Z,5.22
2024-04-24T13:05:49.434Z,3.97
2024-04-24T13:08:16.373Z,3.42
2024-04-24T13:10:43.251Z,6.55
2024-04-24T13:13:10.149Z,3.60
2024-04-24T13:15:38.083Z,3.70
2024-04-24T13:18:05.445Z,4.10
2024-04-24T13:20:32.506Z,3.65
2024-04-24T13:22:59.653Z,2.67
2024-04-24T13:25:26.567Z,2.95
2024-04-24T13:27:53.373Z,2.50
2024-04-24T13:30:20.730Z,7.43
2024-04-24T13:32:47.671Z,1.30
2024-04-24T13:35:15.542Z,4.03
2024-04-24T13:37:43.785Z,3.88
2024-04-24T13:40:10.820Z,3.30
2024-04-24T13:42:37.633Z,2.05
2024-04-24T13:45:05.208Z,2.22
2024-04-24T13:47:32.259Z,2.72
2024-04-24T13:49:59.109Z,1.65
2024-04-24T13:52:26.014Z,2.80
2024-04-24T13:54:52.745Z,4.57
2024-04-24T13:57:19.674Z,3.83
2024-04-24T13:59:46.723Z,2.50
2024-04-24T14:02:13.647Z,2.53
2024-04-24T14:04:40.486Z,4.00
2024-04-24T14:07:07.475Z,2.90
2024-04-24T14:09:34.303Z,3.22
2024-04-24T14:12:01.411Z,4.72
2024-04-24T14:14:30.496Z,3.75
2024-04-24T14:16:57.435Z,2.00
2024-04-24T14:19:24.269Z,3.13
2024-04-24T14:21:51.348Z,1.55
2024-04-24T14:24:18.450Z,1.67
2024-04-24T14:26:45.361Z,1.30
2024-04-24T14:29:14.880Z,1.17
2024-04-24T14:31:43.071Z,1.85
2024-04-24T14:34:11.016Z,0.93
2024-04-24T14:36:38.192Z,1.40
2024-04-24T14:39:04.979Z,2.22
2024-04-24T14:41:31.844Z,1.42
2024-04-24T14:43:58.967Z,1.48
2024-04-24T14:46:25.969Z,2.30
2024-04-24T14:48:53.009Z,1.42
2024-04-24T14:51:20.008Z,1.30
2024-04-24T14:53:46.993Z,0.93
2024-04-24T14:56:14.064Z,0.77
2024-04-24T14:58:40.882Z,1.13
2024-04-24T15:01:07.893Z,2.28
2024-04-24T15:03:34.765Z,3.15
2024-04-24T15:06:05.465Z,2.65
2024-04-24T15:08:32.561Z,2.35
2024-04-24T15:11:05.567Z,3.55
2024-04-24T15:13:32.643Z,3.50
2024-04-24T15:15:59.412Z,2.03
2024-04-24T15:18:28.903Z,2.20
2024-04-24T15:20:56.297Z,2.90
2024-04-24T15:23:23.238Z,1.83
2024-04-24T15:25:50.218Z,2.65
2024-04-24T15:28:17.345Z,3.05
2024-04-24T15:30:44.113Z,1.02
2024-04-24T15:33:11.522Z,2.47
2024-04-24T15:35:38.945Z,1.52
2024-04-24T15:38:05.817Z,1.10
2024-04-24T15:40:32.551Z,1.30
2024-04-24T15:42:59.466Z,1.30
2024-04-24T15:45:27.049Z,2.20
2024-04-24T15:47:54.252Z,1.30
2024-04-24T15:50:21.266Z,2.17
2024-04-24T15:52:48.238Z,2.20
2024-04-24T15:55:15.020Z,2.38
2024-04-24T15:57:42.722Z,2.15
2024-04-24T16:00:10.290Z,1.20
2024-04-24T16:02:39.944Z,4.97
2024-04-24T16:05:06.982Z,4.28
2024-04-24T16:07:33.827Z,0.80
2024-04-24T16:10:02.014Z,1.02
2024-04-24T16:12:29.877Z,0.98
2024-04-24T16:14:56.720Z,0.98
2024-04-24T16:17:23.743Z,0.70
2024-04-24T16:19:50.788Z,1.55
2024-04-24T16:22:17.697Z,0.93
2024-04-24T16:24:44.659Z,2.15
2024-04-24T16:27:11.787Z,2.83
2024-04-24T16:29:41.155Z,0.77
2024-04-24T16:32:09.048Z,1.40
2024-04-24T16:34:36.459Z,0.80
2024-04-24T16:37:03.353Z,2.05
2024-04-24T16:39:30.094Z,2.55
2024-04-24T16:41:57.130Z,3.38
2024-04-24T16:44:23.954Z,1.00
2024-04-24T16:46:50.965Z,0.63
2024-04-24T16:49:18.157Z,0.80
2024-04-24T16:51:45.126Z,4.82
2024-04-24T16:54:11.924Z,1.75
2024-04-24T16:56:38.993Z,0.95
2024-04-24T16:59:05.913Z,1.55
2024-04-24T17:01:34.224Z,9.80
2024-04-24T17:04:01.283Z,1.33
2024-04-24T17:06:28.144Z,0.30
2024-04-24T17:08:54.894Z,1.67
2024-04-24T17:11:21.929Z,0.73
2024-04-24T17:13:48.892Z,0.60
2024-04-24T17:16:15.716Z,0.90
2024-04-24T17:18:42.794Z,0.80
2024-04-24T17:21:10.098Z,0.65
2024-04-24T17:23:37.212Z,0.63
2024-04-24T17:26:04.439Z,0.70
2024-04-24T17:28:31.252Z,1.50
2024-04-24T17:30:58.128Z,1.90
2024-04-24T17:33:25.067Z,0.80
2024-04-24T17:35:52.842Z,0.50
2024-04-24T17:38:19.875Z,0.90
2024-04-24T17:40:47.034Z,0.52
2024-04-24T17:43:13.886Z,0.93
2024-04-24T17:45:40.739Z,0.35
2024-04-24T17:48:09.752Z,0.55
2024-04-24T17:50:36.882Z,1.60
2024-04-24T17:53:04.806Z,0.60
2024-04-24T17:55:31.733Z,1.90
2024-04-24T17:57:59.958Z,0.68
2024-04-24T18:00:27.093Z,2.58
2024-04-24T18:02:53.921Z,1.83
2024-04-24T18:05:22.803Z,0.50
2024-04-24T18:07:50.791Z,1.23
2024-04-24T18:10:17.712Z,2.08
2024-04-24T18:12:46.094Z,1.15
2024-04-24T18:15:13.182Z,0.43
2024-04-24T18:17:40.249Z,1.00
2024-04-24T18:20:07.993Z,3.08
2024-04-24T18:22:35.411Z,2.25
2024-04-24T18:25:02.613Z,1.17
2024-04-24T18:27:30.174Z,1.85
2024-04-24T18:29:57.113Z,1.13
2024-04-24T18:32:24.140Z,2.97
2024-04-24T18:34:50.954Z,2.10
2024-04-24T18:37:18.087Z,3.05
2024-04-24T18:39:44.979Z,1.25
2024-04-24T18:42:12.222Z,0.63
2024-04-24T18:44:39.111Z,1.35
2024-04-24T18:47:06.087Z,1.00
2024-04-24T18:49:33.678Z,0.50
2024-04-24T18:52:01.034Z,2.72
2024-04-24T18:54:28.038Z,1.63
2024-04-24T18:56:54.903Z,2.22
2024-04-24T18:59:21.801Z,1.45
2024-04-24T19:01:48.717Z,2.17
2024-04-24T19:04:16.275Z,4.03
2024-04-24T19:06:43.281Z,3.10
2024-04-24T19:09:11.528Z,0.90
2024-04-24T19:11:38.777Z,1.60
2024-04-24T19:14:05.810Z,0.55
2024-04-24T19:16:35.572Z,0.50
2024-04-24T19:19:02.538Z,0.60
2024-04-24T19:21:29.367Z,0.50
2024-04-24T19:23:56.322Z,0.40
2024-04-24T19:26:23.512Z,0.70
2024-04-24T19:28:51.967Z,0.60
2024-04-24T19:31:30.980Z,0.93
2024-04-24T19:33:59.804Z,0.63
2024-04-24T19:36:27.612Z,0.80
2024-04-24T19:38:55.253Z,1.00
2024-04-24T19:41:22.375Z,0.60
2024-04-24T19:43:49.488Z,0.85
2024-04-24T19:46:16.896Z,2.40
2024-04-24T19:48:44.896Z,1.45
2024-04-24T19:51:13.864Z,1.00
2024-04-24T19:53:40.786Z,0.70
2024-04-24T19:56:08.160Z,3.85
2024-04-24T19:58:35.220Z,0.93
2024-04-24T20:01:11.314Z,0.93
2024-04-24T20:03:39.381Z,1.02
2024-04-24T20:06:09.930Z,1.33
2024-04-24T20:08:37.520Z,2.00
2024-04-24T20:11:05.559Z,0.60
2024-04-24T20:13:34.034Z,0.32
2024-04-24T20:16:08.506Z,0.50
2024-04-24T20:18:38.426Z,0.82
2024-04-24T20:21:13.643Z,1.13
2024-04-24T20:23:40.792Z,0.60
2024-04-24T20:26:25.080Z,0.68
2024-04-24T20:28:54.135Z,1.08
2024-04-24T20:31:27.907Z,0.95
2024-04-24T20:33:57.850Z,3.78
2024-04-24T20:36:27.995Z,0.90
2024-04-24T20:39:01.206Z,0.57
2024-04-24T20:41:31.123Z,0.75
2024-04-24T20:43:58.514Z,1.05
2024-04-24T20:46:25.594Z,0.80
2024-04-24T20:48:52.593Z,0.70
2024-04-24T20:51:20.116Z,1.33
2024-04-24T20:53:47.150Z,1.10
2024-04-24T20:56:17.269Z,0.47
2024-04-24T20:58:44.540Z,1.38
2024-04-24T21:01:11.447Z,1.10
2024-04-24T21:03:38.899Z,1.25
2024-04-24T21:06:07.303Z,1.80
2024-04-24T21:08:37.681Z,1.25
2024-04-24T21:11:05.851Z,1.20
2024-04-24T21:13:33.025Z,0.40
2024-04-24T21:16:00.164Z,0.60
2024-04-24T21:18:27.285Z,1.60
2024-04-24T21:20:57.246Z,0.68
2024-04-24T21:23:24.151Z,1.25
2024-04-24T21:25:51.120Z,1.33
2024-04-24T21:28:17.883Z,0.70
2024-04-24T21:30:46.633Z,0.77
2024-04-24T21:33:13.952Z,1.20
2024-04-24T21:35:41.190Z,1.65
2024-04-24T21:38:08.065Z,1.45
2024-04-24T21:40:35.531Z,1.00
2024-04-24T21:43:02.383Z,1.23
2024-04-24T21:45:29.255Z,0.98
2024-04-24T21:47:56.306Z,1.02
2024-04-24T21:50:23.414Z,0.70
2024-04-24T21:52:50.209Z,1.95
2024-04-24T21:55:17.060Z,1.25
2024-04-24T21:57:43.891Z,1.42
2024-04-24T22:00:11.145Z,1.42
2024-04-24T22:02:40.754Z,0.73
2024-04-24T22:05:07.804Z,2.28
2024-04-24T22:07:34.610Z,3.22
2024-04-24T22:10:01.564Z,1.05
2024-04-24T22:12:28.366Z,2.38
2024-04-24T22:14:55.375Z,0.63
2024-04-24T22:17:27.625Z,1.17
2024-04-24T22:19:55.637Z,0.60
2024-04-24T22:22:23.709Z,1.13
2024-04-24T22:24:53.112Z,1.00
2024-04-24T22:27:21.317Z,0.60
2024-04-24T22:29:48.366Z,4.85
2024-04-24T22:32:15.229Z,1.92
2024-04-24T22:34:42.225Z,0.57
2024-04-24T22:37:09.312Z,1.30
2024-04-24T22:39:36.462Z,0.40
2024-04-24T22:42:04.825Z,0.50
2024-04-24T22:44:32.204Z,1.77
2024-04-24T22:46:59.146Z,1.05
2024-04-24T22:49:26.318Z,0.68
2024-04-24T22:51:53.259Z,0.63
2024-04-24T22:54:20.185Z,0.43
2024-04-24T22:56:47.006Z,1.55
2024-04-24T22:59:13.939Z,1.00
2024-04-24T23:01:40.835Z,0.38
2024-04-24T23:04:09.532Z,0.93
2024-04-24T23:06:37.128Z,0.30
2024-04-24T23:09:03.998Z,1.17
2024-04-24T23:11:30.866Z,1.10
2024-04-24T23:13:57.919Z,1.15
2024-04-24T23:16:24.821Z,1.70
2024-04-24T23:18:51.691Z,0.85
2024-04-24T23:21:18.609Z,0.50
2024-04-24T23:23:45.474Z,0.68
2024-04-24T23:26:12.327Z,0.55
2024-04-24T23:28:39.350Z,0.40
2024-04-24T23:31:06.637Z,0.57
2024-04-24T23:33:33.775Z,0.20
2024-04-24T23:36:04.936Z,0.30
2024-04-24T23:38:34.988Z,0.68
2024-04-24T23:41:02.383Z,0.30
2024-04-24T23:43:29.512Z,0.50
2024-04-24T23:45:56.380Z,2.53
2024-04-24T23:48:23.254Z,1.00
2024-04-24T23:50:51.267Z,0.52
2024-04-24T23:53:18.049Z,0.50
2024-04-24T23:55:44.923Z,2.00
2024-04-24T23:58:11.751Z,0.93
